sensor_id;sensor_type;location;lat;lon;timestamp;P1;durP1;ratioP1;P2;durP2;ratioP2
8007;SDS011;4049;49.468;11.200;2022-09-12T00:01:14;3.60;;;3.30;;
8007;SDS011;4049;49.468;11.200;2022-09-12T00:03:43;8.00;;;3.50;;
8007;SDS011;4049;49.468;11.200;2022-09-12T00:06:11;4.43;;;3.53;;
8007;SDS011;4049;49.468;11.200;2022-09-12T00:08:41;4.93;;;3.30;;
8007;SDS011;4049;49.468;11.200;2022-09-12T00:11:10;3.83;;;3.03;;
8007;SDS011;4049;49.468;11.200;2022-09-12T00:13:38;6.80;;;3.13;;
8007;SDS011;4049;49.468;11.200;2022-09-12T00:16:06;4.57;;;3.30;;
8007;SDS011;4049;49.468;11.200;2022-09-12T00:18:39;4.53;;;3.10;;
8007;SDS011;4049;49.468;11.200;2022-09-12T00:21:06;4.40;;;3.27;;
8007;SDS011;4049;49.468;11.200;2022-09-12T00:23:33;9.37;;;3.50;;
8007;SDS011;4049;49.468;11.200;2022-09-12T00:26:02;4.47;;;3.43;;
8007;SDS011;4049;49.468;11.200;2022-09-12T00:28:32;4.40;;;3.30;;
8007;SDS011;4049;49.468;11.200;2022-09-12T00:31:02;5.03;;;3.43;;
8007;SDS011;4049;49.468;11.200;2022-09-12T00:33:30;4.17;;;3.30;;
8007;SDS011;4049;49.468;11.200;2022-09-12T00:35:57;4.20;;;3.40;;
8007;SDS011;4049;49.468;11.200;2022-09-12T00:38:24;4.97;;;3.50;;
8007;SDS011;4049;49.468;11.200;2022-09-12T00:40:51;4.20;;;2.97;;
8007;SDS011;4049;49.468;11.200;2022-09-12T00:46:09;4.27;;;3.10;;
8007;SDS011;4049;49.468;11.200;2022-09-12T00:48:49;3.30;;;2.90;;
8007;SDS011;4049;49.468;11.200;2022-09-12T00:51:19;5.03;;;3.10;;
8007;SDS011;4049;49.468;11.200;2022-09-12T00:53:47;4.50;;;3.47;;
8007;SDS011;4049;49.468;11.200;2022-09-12T00:56:18;5.63;;;3.50;;
8007;SDS011;4049;49.468;11.200;2022-09-12T00:58:48;4.17;;;3.23;;
8007;SDS011;4049;49.468;11.200;2022-09-12T01:01:20;3.97;;;3.57;;
8007;SDS011;4049;49.468;11.200;2022-09-12T01:03:47;3.83;;;3.20;;
8007;SDS011;4049;49.468;11.200;2022-09-12T01:06:15;4.27;;;3.80;;
8007;SDS011;4049;49.468;11.200;2022-09-12T01:08:46;6.57;;;3.43;;
8007;SDS011;4049;49.468;11.200;2022-09-12T01:11:14;5.10;;;3.47;;
8007;SDS011;4049;49.468;11.200;2022-09-12T01:13:43;4.97;;;3.47;;
8007;SDS011;4049;49.468;11.200;2022-09-12T01:16:12;4.97;;;3.33;;
8007;SDS011;4049;49.468;11.200;2022-09-12T01:18:45;4.03;;;3.30;;
8007;SDS011;4049;49.468;11.200;2022-09-12T01:21:22;4.73;;;3.30;;
8007;SDS011;4049;49.468;11.200;2022-09-12T01:27:02;5.70;;;3.37;;
8007;SDS011;4049;49.468;11.200;2022-09-12T01:29:53;4.63;;;3.50;;
8007;SDS011;4049;49.468;11.200;2022-09-12T01:32:33;3.87;;;3.10;;
8007;SDS011;4049;49.468;11.200;2022-09-12T01:35:10;6.30;;;3.47;;
8007;SDS011;4049;49.468;11.200;2022-09-12T01:37:46;3.83;;;3.13;;
8007;SDS011;4049;49.468;11.200;2022-09-12T01:40:20;3.47;;;3.17;;
8007;SDS011;4049;49.468;11.200;2022-09-12T01:42:53;4.93;;;3.67;;
8007;SDS011;4049;49.468;11.200;2022-09-12T01:45:28;4.73;;;3.30;;
8007;SDS011;4049;49.468;11.200;2022-09-12T01:48:02;3.93;;;3.53;;
8007;SDS011;4049;49.468;11.200;2022-09-12T01:50:36;4.10;;;3.03;;
8007;SDS011;4049;49.468;11.200;2022-09-12T01:53:11;5.00;;;3.13;;
8007;SDS011;4049;49.468;11.200;2022-09-12T01:55:43;4.83;;;3.03;;
8007;SDS011;4049;49.468;11.200;2022-09-12T01:58:14;3.73;;;3.10;;
8007;SDS011;4049;49.468;11.200;2022-09-12T02:00:46;5.00;;;3.40;;
8007;SDS011;4049;49.468;11.200;2022-09-12T02:03:20;4.30;;;3.40;;
8007;SDS011;4049;49.468;11.200;2022-09-12T02:05:54;5.13;;;3.07;;
8007;SDS011;4049;49.468;11.200;2022-09-12T02:08:25;4.50;;;3.40;;
8007;SDS011;4049;49.468;11.200;2022-09-12T02:10:57;3.63;;;3.10;;
8007;SDS011;4049;49.468;11.200;2022-09-12T02:13:30;3.27;;;2.80;;
8007;SDS011;4049;49.468;11.200;2022-09-12T02:16:02;3.53;;;2.80;;
8007;SDS011;4049;49.468;11.200;2022-09-12T02:18:34;4.13;;;3.10;;
8007;SDS011;4049;49.468;11.200;2022-09-12T02:21:04;3.47;;;3.10;;
8007;SDS011;4049;49.468;11.200;2022-09-12T02:23:32;4.20;;;3.13;;
8007;SDS011;4049;49.468;11.200;2022-09-12T02:26:04;4.37;;;3.20;;
8007;SDS011;4049;49.468;11.200;2022-09-12T02:28:37;4.47;;;3.50;;
8007;SDS011;4049;49.468;11.200;2022-09-12T02:31:08;4.97;;;3.13;;
8007;SDS011;4049;49.468;11.200;2022-09-12T02:33:44;3.90;;;3.10;;
8007;SDS011;4049;49.468;11.200;2022-09-12T02:36:19;3.77;;;3.20;;
8007;SDS011;4049;49.468;11.200;2022-09-12T02:38:55;5.07;;;3.40;;
8007;SDS011;4049;49.468;11.200;2022-09-12T02:41:22;4.60;;;2.90;;
8007;SDS011;4049;49.468;11.200;2022-09-12T02:43:49;4.73;;;3.77;;
8007;SDS011;4049;49.468;11.200;2022-09-12T02:46:19;4.13;;;3.33;;
8007;SDS011;4049;49.468;11.200;2022-09-12T02:48:49;3.70;;;3.00;;
8007;SDS011;4049;49.468;11.200;2022-09-12T02:51:17;5.83;;;3.40;;
8007;SDS011;4049;49.468;11.200;2022-09-12T02:53:44;3.83;;;3.40;;
8007;SDS011;4049;49.468;11.200;2022-09-12T02:56:11;3.87;;;3.13;;
8007;SDS011;4049;49.468;11.200;2022-09-12T02:58:43;4.00;;;3.27;;
8007;SDS011;4049;49.468;11.200;2022-09-12T03:01:11;3.13;;;2.70;;
8007;SDS011;4049;49.468;11.200;2022-09-12T03:03:52;5.87;;;3.30;;
8007;SDS011;4049;49.468;11.200;2022-09-12T03:06:34;3.70;;;3.17;;
8007;SDS011;4049;49.468;11.200;2022-09-12T03:09:09;5.70;;;3.07;;
8007;SDS011;4049;49.468;11.200;2022-09-12T03:14:48;3.90;;;3.10;;
8007;SDS011;4049;49.468;11.200;2022-09-12T03:17:37;4.57;;;3.20;;
8007;SDS011;4049;49.468;11.200;2022-09-12T03:20:16;3.47;;;3.03;;
8007;SDS011;4049;49.468;11.200;2022-09-12T03:22:51;4.77;;;3.17;;
8007;SDS011;4049;49.468;11.200;2022-09-12T03:25:22;5.13;;;3.03;;
8007;SDS011;4049;49.468;11.200;2022-09-12T03:27:55;3.67;;;3.27;;
8007;SDS011;4049;49.468;11.200;2022-09-12T03:30:25;3.93;;;3.13;;
8007;SDS011;4049;49.468;11.200;2022-09-12T03:32:53;4.87;;;3.40;;
8007;SDS011;4049;49.468;11.200;2022-09-12T03:35:22;4.43;;;3.30;;
8007;SDS011;4049;49.468;11.200;2022-09-12T03:37:50;3.80;;;3.03;;
8007;SDS011;4049;49.468;11.200;2022-09-12T03:40:17;3.83;;;3.30;;
8007;SDS011;4049;49.468;11.200;2022-09-12T03:42:45;5.13;;;3.27;;
8007;SDS011;4049;49.468;11.200;2022-09-12T03:45:12;4.20;;;3.13;;
8007;SDS011;4049;49.468;11.200;2022-09-12T03:47:40;4.30;;;3.10;;
8007;SDS011;4049;49.468;11.200;2022-09-12T03:50:07;4.00;;;3.30;;
8007;SDS011;4049;49.468;11.200;2022-09-12T03:52:36;3.70;;;3.10;;
8007;SDS011;4049;49.468;11.200;2022-09-12T03:55:03;4.87;;;3.43;;
8007;SDS011;4049;49.468;11.200;2022-09-12T03:57:31;4.73;;;3.17;;
8007;SDS011;4049;49.468;11.200;2022-09-12T03:59:58;5.77;;;3.40;;
8007;SDS011;4049;49.468;11.200;2022-09-12T04:02:26;3.80;;;3.40;;
8007;SDS011;4049;49.468;11.200;2022-09-12T04:04:53;4.27;;;3.33;;
8007;SDS011;4049;49.468;11.200;2022-09-12T04:07:20;4.07;;;3.47;;
8007;SDS011;4049;49.468;11.200;2022-09-12T04:09:48;4.10;;;2.90;;
8007;SDS011;4049;49.468;11.200;2022-09-12T04:12:15;6.10;;;3.20;;
8007;SDS011;4049;49.468;11.200;2022-09-12T04:14:42;4.17;;;3.37;;
8007;SDS011;4049;49.468;11.200;2022-09-12T04:17:09;6.27;;;3.30;;
8007;SDS011;4049;49.468;11.200;2022-09-12T04:19:36;4.20;;;3.37;;
8007;SDS011;4049;49.468;11.200;2022-09-12T04:22:03;5.33;;;3.43;;
8007;SDS011;4049;49.468;11.200;2022-09-12T04:24:30;4.00;;;3.37;;
8007;SDS011;4049;49.468;11.200;2022-09-12T04:26:58;4.57;;;3.60;;
8007;SDS011;4049;49.468;11.200;2022-09-12T04:29:25;6.63;;;3.97;;
8007;SDS011;4049;49.468;11.200;2022-09-12T04:31:53;5.30;;;3.07;;
8007;SDS011;4049;49.468;11.200;2022-09-12T04:34:20;3.93;;;3.30;;
8007;SDS011;4049;49.468;11.200;2022-09-12T04:36:47;5.03;;;3.47;;
8007;SDS011;4049;49.468;11.200;2022-09-12T04:39:14;4.33;;;3.23;;
8007;SDS011;4049;49.468;11.200;2022-09-12T04:41:42;5.40;;;3.63;;
8007;SDS011;4049;49.468;11.200;2022-09-12T04:44:11;3.97;;;3.30;;
8007;SDS011;4049;49.468;11.200;2022-09-12T04:46:40;4.37;;;3.20;;
8007;SDS011;4049;49.468;11.200;2022-09-12T04:49:08;4.93;;;3.83;;
8007;SDS011;4049;49.468;11.200;2022-09-12T04:51:36;5.03;;;3.70;;
8007;SDS011;4049;49.468;11.200;2022-09-12T04:54:05;5.53;;;3.90;;
8007;SDS011;4049;49.468;11.200;2022-09-12T04:56:35;6.17;;;3.20;;
8007;SDS011;4049;49.468;11.200;2022-09-12T04:59:03;4.73;;;3.20;;
8007;SDS011;4049;49.468;11.200;2022-09-12T05:01:32;5.30;;;3.73;;
8007;SDS011;4049;49.468;11.200;2022-09-12T05:03:59;4.97;;;3.60;;
8007;SDS011;4049;49.468;11.200;2022-09-12T05:06:27;7.57;;;4.23;;
8007;SDS011;4049;49.468;11.200;2022-09-12T05:08:55;4.80;;;3.60;;
8007;SDS011;4049;49.468;11.200;2022-09-12T05:11:24;5.80;;;4.27;;
8007;SDS011;4049;49.468;11.200;2022-09-12T05:13:54;7.67;;;4.43;;
8007;SDS011;4049;49.468;11.200;2022-09-12T05:16:22;6.07;;;4.50;;
8007;SDS011;4049;49.468;11.200;2022-09-12T05:18:51;7.70;;;4.40;;
8007;SDS011;4049;49.468;11.200;2022-09-12T05:21:18;5.70;;;4.23;;
8007;SDS011;4049;49.468;11.200;2022-09-12T05:23:49;4.57;;;4.13;;
8007;SDS011;4049;49.468;11.200;2022-09-12T05:26:16;5.00;;;4.03;;
8007;SDS011;4049;49.468;11.200;2022-09-12T05:28:44;6.10;;;4.23;;
8007;SDS011;4049;49.468;11.200;2022-09-12T05:31:12;6.77;;;4.33;;
8007;SDS011;4049;49.468;11.200;2022-09-12T05:33:41;5.13;;;3.60;;
8007;SDS011;4049;49.468;11.200;2022-09-12T05:36:12;6.73;;;4.13;;
8007;SDS011;4049;49.468;11.200;2022-09-12T05:38:41;7.07;;;4.47;;
8007;SDS011;4049;49.468;11.200;2022-09-12T05:41:09;7.03;;;4.30;;
8007;SDS011;4049;49.468;11.200;2022-09-12T05:43:39;4.87;;;3.90;;
8007;SDS011;4049;49.468;11.200;2022-09-12T05:46:08;5.97;;;4.23;;
8007;SDS011;4049;49.468;11.200;2022-09-12T05:48:36;7.60;;;5.13;;
8007;SDS011;4049;49.468;11.200;2022-09-12T05:51:06;5.00;;;4.00;;
8007;SDS011;4049;49.468;11.200;2022-09-12T05:53:35;10.27;;;4.17;;
8007;SDS011;4049;49.468;11.200;2022-09-12T05:56:05;9.33;;;4.47;;
8007;SDS011;4049;49.468;11.200;2022-09-12T05:58:33;5.60;;;4.03;;
8007;SDS011;4049;49.468;11.200;2022-09-12T06:01:02;6.40;;;4.40;;
8007;SDS011;4049;49.468;11.200;2022-09-12T06:03:31;6.40;;;4.40;;
8007;SDS011;4049;49.468;11.200;2022-09-12T06:06:00;6.60;;;4.17;;
8007;SDS011;4049;49.468;11.200;2022-09-12T06:08:29;6.37;;;4.27;;
8007;SDS011;4049;49.468;11.200;2022-09-12T06:11:01;6.10;;;3.87;;
8007;SDS011;4049;49.468;11.200;2022-09-12T06:13:30;6.47;;;4.07;;
8007;SDS011;4049;49.468;11.200;2022-09-12T06:16:04;7.33;;;4.67;;
8007;SDS011;4049;49.468;11.200;2022-09-12T06:18:32;6.53;;;4.80;;
8007;SDS011;4049;49.468;11.200;2022-09-12T06:21:04;9.03;;;4.50;;
8007;SDS011;4049;49.468;11.200;2022-09-12T06:23:32;8.50;;;5.50;;
8007;SDS011;4049;49.468;11.200;2022-09-12T06:25:59;6.50;;;4.80;;
8007;SDS011;4049;49.468;11.200;2022-09-12T06:28:29;10.37;;;4.97;;
8007;SDS011;4049;49.468;11.200;2022-09-12T06:31:00;6.70;;;4.40;;
8007;SDS011;4049;49.468;11.200;2022-09-12T06:33:28;6.80;;;4.70;;
8007;SDS011;4049;49.468;11.200;2022-09-12T06:36:00;11.57;;;5.57;;
8007;SDS011;4049;49.468;11.200;2022-09-12T06:38:28;6.87;;;5.20;;
8007;SDS011;4049;49.468;11.200;2022-09-12T06:40:55;9.13;;;5.50;;
8007;SDS011;4049;49.468;11.200;2022-09-12T06:43:24;8.07;;;5.50;;
8007;SDS011;4049;49.468;11.200;2022-09-12T06:45:51;7.70;;;5.20;;
8007;SDS011;4049;49.468;11.200;2022-09-12T06:48:18;8.33;;;5.87;;
8007;SDS011;4049;49.468;11.200;2022-09-12T06:50:53;9.73;;;5.50;;
8007;SDS011;4049;49.468;11.200;2022-09-12T06:53:21;9.07;;;5.63;;
8007;SDS011;4049;49.468;11.200;2022-09-12T06:55:53;7.27;;;5.33;;
8007;SDS011;4049;49.468;11.200;2022-09-12T06:58:21;9.07;;;5.93;;
8007;SDS011;4049;49.468;11.200;2022-09-12T07:00:49;8.83;;;5.47;;
8007;SDS011;4049;49.468;11.200;2022-09-12T07:03:16;7.80;;;5.40;;
8007;SDS011;4049;49.468;11.200;2022-09-12T07:05:43;7.50;;;5.43;;
8007;SDS011;4049;49.468;11.200;2022-09-12T07:08:10;9.27;;;6.43;;
8007;SDS011;4049;49.468;11.200;2022-09-12T07:10:37;10.83;;;5.90;;
8007;SDS011;4049;49.468;11.200;2022-09-12T07:13:04;9.77;;;5.97;;
8007;SDS011;4049;49.468;11.200;2022-09-12T07:15:33;11.33;;;6.33;;
8007;SDS011;4049;49.468;11.200;2022-09-12T07:18:02;10.70;;;7.03;;
8007;SDS011;4049;49.468;11.200;2022-09-12T07:20:29;8.83;;;6.10;;
8007;SDS011;4049;49.468;11.200;2022-09-12T07:22:57;11.77;;;7.63;;
8007;SDS011;4049;49.468;11.200;2022-09-12T07:25:24;11.13;;;7.37;;
8007;SDS011;4049;49.468;11.200;2022-09-12T07:27:51;15.03;;;7.77;;
8007;SDS011;4049;49.468;11.200;2022-09-12T07:30:19;14.67;;;8.83;;
8007;SDS011;4049;49.468;11.200;2022-09-12T07:32:50;14.13;;;8.90;;
8007;SDS011;4049;49.468;11.200;2022-09-12T07:35:22;12.83;;;8.17;;
8007;SDS011;4049;49.468;11.200;2022-09-12T07:37:49;10.57;;;7.60;;
8007;SDS011;4049;49.468;11.200;2022-09-12T07:40:16;11.70;;;7.90;;
8007;SDS011;4049;49.468;11.200;2022-09-12T07:42:43;13.17;;;8.20;;
8007;SDS011;4049;49.468;11.200;2022-09-12T07:45:11;11.83;;;8.00;;
8007;SDS011;4049;49.468;11.200;2022-09-12T07:47:39;12.13;;;8.43;;
8007;SDS011;4049;49.468;11.200;2022-09-12T07:50:06;14.43;;;9.57;;
8007;SDS011;4049;49.468;11.200;2022-09-12T07:52:35;15.30;;;9.00;;
8007;SDS011;4049;49.468;11.200;2022-09-12T07:55:02;15.20;;;9.13;;
8007;SDS011;4049;49.468;11.200;2022-09-12T07:57:29;18.47;;;9.13;;
8007;SDS011;4049;49.468;11.200;2022-09-12T07:59:56;27.93;;;18.67;;
8007;SDS011;4049;49.468;11.200;2022-09-12T08:02:23;15.20;;;9.17;;
8007;SDS011;4049;49.468;11.200;2022-09-12T08:04:50;14.23;;;8.40;;
8007;SDS011;4049;49.468;11.200;2022-09-12T08:07:16;14.57;;;8.87;;
8007;SDS011;4049;49.468;11.200;2022-09-12T08:09:45;15.17;;;9.17;;
8007;SDS011;4049;49.468;11.200;2022-09-12T08:12:13;24.73;;;14.23;;
8007;SDS011;4049;49.468;11.200;2022-09-12T08:14:40;20.93;;;11.47;;
8007;SDS011;4049;49.468;11.200;2022-09-12T08:17:07;17.63;;;10.13;;
8007;SDS011;4049;49.468;11.200;2022-09-12T08:19:34;23.67;;;13.50;;
8007;SDS011;4049;49.468;11.200;2022-09-12T08:22:01;18.70;;;11.67;;
8007;SDS011;4049;49.468;11.200;2022-09-12T08:24:28;19.23;;;10.27;;
8007;SDS011;4049;49.468;11.200;2022-09-12T08:26:57;21.57;;;10.60;;
8007;SDS011;4049;49.468;11.200;2022-09-12T08:29:24;15.10;;;9.40;;
8007;SDS011;4049;49.468;11.200;2022-09-12T08:31:51;14.87;;;9.57;;
8007;SDS011;4049;49.468;11.200;2022-09-12T08:34:18;15.00;;;9.53;;
8007;SDS011;4049;49.468;11.200;2022-09-12T08:36:45;14.67;;;9.10;;
8007;SDS011;4049;49.468;11.200;2022-09-12T08:39:12;16.83;;;11.33;;
8007;SDS011;4049;49.468;11.200;2022-09-12T08:41:40;14.70;;;8.83;;
8007;SDS011;4049;49.468;11.200;2022-09-12T08:44:21;13.00;;;8.87;;
8007;SDS011;4049;49.468;11.200;2022-09-12T08:47:11;13.30;;;8.77;;
8007;SDS011;4049;49.468;11.200;2022-09-12T08:49:44;17.93;;;11.73;;
8007;SDS011;4049;49.468;11.200;2022-09-12T08:52:18;15.73;;;10.07;;
8007;SDS011;4049;49.468;11.200;2022-09-12T08:54:49;16.17;;;9.03;;
8007;SDS011;4049;49.468;11.200;2022-09-12T08:57:16;13.93;;;8.93;;
8007;SDS011;4049;49.468;11.200;2022-09-12T08:59:44;10.63;;;8.13;;
8007;SDS011;4049;49.468;11.200;2022-09-12T09:02:23;10.87;;;7.90;;
8007;SDS011;4049;49.468;11.200;2022-09-12T09:05:03;10.97;;;8.23;;
8007;SDS011;4049;49.468;11.200;2022-09-12T09:07:48;9.00;;;7.50;;
8007;SDS011;4049;49.468;11.200;2022-09-12T09:10:30;20.20;;;10.23;;
8007;SDS011;4049;49.468;11.200;2022-09-12T09:13:06;10.13;;;7.20;;
8007;SDS011;4049;49.468;11.200;2022-09-12T09:16:04;11.83;;;6.90;;
8007;SDS011;4049;49.468;11.200;2022-09-12T09:18:36;10.47;;;6.83;;
8007;SDS011;4049;49.468;11.200;2022-09-12T09:21:04;8.30;;;6.20;;
8007;SDS011;4049;49.468;11.200;2022-09-12T09:23:40;8.77;;;6.33;;
8007;SDS011;4049;49.468;11.200;2022-09-12T09:26:10;6.70;;;5.43;;
8007;SDS011;4049;49.468;11.200;2022-09-12T09:28:41;7.73;;;5.97;;
8007;SDS011;4049;49.468;11.200;2022-09-12T09:31:15;6.50;;;4.70;;
8007;SDS011;4049;49.468;11.200;2022-09-12T09:33:43;7.47;;;6.10;;
8007;SDS011;4049;49.468;11.200;2022-09-12T09:36:14;6.53;;;4.53;;
8007;SDS011;4049;49.468;11.200;2022-09-12T09:38:48;6.10;;;4.60;;
8007;SDS011;4049;49.468;11.200;2022-09-12T09:41:33;6.43;;;4.70;;
8007;SDS011;4049;49.468;11.200;2022-09-12T09:44:10;5.77;;;4.00;;
8007;SDS011;4049;49.468;11.200;2022-09-12T09:46:39;7.10;;;4.80;;
8007;SDS011;4049;49.468;11.200;2022-09-12T09:49:05;6.50;;;4.47;;
8007;SDS011;4049;49.468;11.200;2022-09-12T09:51:39;5.50;;;4.57;;
8007;SDS011;4049;49.468;11.200;2022-09-12T09:54:09;6.20;;;4.63;;
8007;SDS011;4049;49.468;11.200;2022-09-12T09:56:42;4.77;;;3.70;;
8007;SDS011;4049;49.468;11.200;2022-09-12T09:59:09;7.17;;;4.33;;
8007;SDS011;4049;49.468;11.200;2022-09-12T10:01:45;5.77;;;4.30;;
8007;SDS011;4049;49.468;11.200;2022-09-12T10:04:18;6.20;;;4.47;;
8007;SDS011;4049;49.468;11.200;2022-09-12T10:06:46;5.83;;;4.53;;
8007;SDS011;4049;49.468;11.200;2022-09-12T10:09:20;6.33;;;4.47;;
8007;SDS011;4049;49.468;11.200;2022-09-12T10:11:49;6.13;;;4.67;;
8007;SDS011;4049;49.468;11.200;2022-09-12T10:14:26;6.70;;;4.50;;
8007;SDS011;4049;49.468;11.200;2022-09-12T10:16:56;4.57;;;3.70;;
8007;SDS011;4049;49.468;11.200;2022-09-12T10:19:32;6.27;;;4.00;;
8007;SDS011;4049;49.468;11.200;2022-09-12T10:22:00;4.70;;;4.00;;
8007;SDS011;4049;49.468;11.200;2022-09-12T10:24:31;5.03;;;3.77;;
8007;SDS011;4049;49.468;11.200;2022-09-12T10:27:06;5.93;;;4.43;;
8007;SDS011;4049;49.468;11.200;2022-09-12T10:29:39;4.33;;;3.37;;
8007;SDS011;4049;49.468;11.200;2022-09-12T10:32:17;5.57;;;3.90;;
8007;SDS011;4049;49.468;11.200;2022-09-12T10:34:50;4.83;;;3.70;;
8007;SDS011;4049;49.468;11.200;2022-09-12T10:37:22;5.20;;;3.50;;
8007;SDS011;4049;49.468;11.200;2022-09-12T10:39:55;4.50;;;3.43;;
8007;SDS011;4049;49.468;11.200;2022-09-12T10:45:16;5.27;;;3.77;;
8007;SDS011;4049;49.468;11.200;2022-09-12T10:47:46;4.30;;;3.50;;
8007;SDS011;4049;49.468;11.200;2022-09-12T10:50:21;5.23;;;3.53;;
8007;SDS011;4049;49.468;11.200;2022-09-12T10:52:50;4.93;;;3.60;;
8007;SDS011;4049;49.468;11.200;2022-09-12T10:55:18;3.73;;;3.27;;
8007;SDS011;4049;49.468;11.200;2022-09-12T10:57:56;4.17;;;3.50;;
8007;SDS011;4049;49.468;11.200;2022-09-12T11:00:34;4.23;;;3.00;;
8007;SDS011;4049;49.468;11.200;2022-09-12T11:03:13;4.75;;;3.30;;
8007;SDS011;4049;49.468;11.200;2022-09-12T11:05:50;7.28;;;3.47;;
8007;SDS011;4049;49.468;11.200;2022-09-12T11:08:33;3.85;;;2.90;;
8007;SDS011;4049;49.468;11.200;2022-09-12T11:11:10;3.50;;;3.17;;
8007;SDS011;4049;49.468;11.200;2022-09-12T11:13:54;5.00;;;3.30;;
8007;SDS011;4049;49.468;11.200;2022-09-12T11:16:33;3.43;;;3.10;;
8007;SDS011;4049;49.468;11.200;2022-09-12T11:19:19;3.97;;;3.13;;
8007;SDS011;4049;49.468;11.200;2022-09-12T11:22:00;3.40;;;3.10;;
8007;SDS011;4049;49.468;11.200;2022-09-12T11:30:24;3.92;;;3.17;;
8007;SDS011;4049;49.468;11.200;2022-09-12T11:35:46;3.53;;;2.78;;
8007;SDS011;4049;49.468;11.200;2022-09-12T11:41:22;4.60;;;3.20;;
8007;SDS011;4049;49.468;11.200;2022-09-12T11:43:54;4.47;;;2.95;;
8007;SDS011;4049;49.468;11.200;2022-09-12T11:46:27;3.22;;;2.92;;
8007;SDS011;4049;49.468;11.200;2022-09-12T11:49:00;3.42;;;2.90;;
8007;SDS011;4049;49.468;11.200;2022-09-12T11:51:34;5.28;;;3.05;;
8007;SDS011;4049;49.468;11.200;2022-09-12T11:54:10;3.75;;;3.28;;
8007;SDS011;4049;49.468;11.200;2022-09-12T11:56:42;3.47;;;3.00;;
8007;SDS011;4049;49.468;11.200;2022-09-12T11:59:13;3.70;;;2.85;;
8007;SDS011;4049;49.468;11.200;2022-09-12T12:01:45;5.63;;;3.38;;
8007;SDS011;4049;49.468;11.200;2022-09-12T12:04:16;3.70;;;3.25;;
8007;SDS011;4049;49.468;11.200;2022-09-12T12:06:50;3.10;;;2.50;;
8007;SDS011;4049;49.468;11.200;2022-09-12T12:09:21;3.08;;;2.75;;
8007;SDS011;4049;49.468;11.200;2022-09-12T12:11:49;5.20;;;2.95;;
8007;SDS011;4049;49.468;11.200;2022-09-12T12:14:21;3.42;;;2.38;;
8007;SDS011;4049;49.468;11.200;2022-09-12T12:16:50;4.90;;;3.20;;
8007;SDS011;4049;49.468;11.200;2022-09-12T12:19:27;3.78;;;3.30;;
8007;SDS011;4049;49.468;11.200;2022-09-12T12:22:06;3.25;;;2.95;;
8007;SDS011;4049;49.468;11.200;2022-09-12T12:24:52;3.13;;;2.70;;
8007;SDS011;4049;49.468;11.200;2022-09-12T12:36:28;3.30;;;2.88;;
8007;SDS011;4049;49.468;11.200;2022-09-12T12:48:30;3.25;;;2.72;;
8007;SDS011;4049;49.468;11.200;2022-09-12T12:51:47;3.10;;;2.80;;
8007;SDS011;4049;49.468;11.200;2022-09-12T12:54:32;3.20;;;2.90;;
8007;SDS011;4049;49.468;11.200;2022-09-12T13:00:25;3.58;;;3.08;;
8007;SDS011;4049;49.468;11.200;2022-09-12T13:02:58;3.42;;;3.08;;
8007;SDS011;4049;49.468;11.200;2022-09-12T13:05:28;4.20;;;3.10;;
8007;SDS011;4049;49.468;11.200;2022-09-12T13:08:08;3.30;;;3.00;;
8007;SDS011;4049;49.468;11.200;2022-09-12T13:10:37;4.13;;;3.17;;
8007;SDS011;4049;49.468;11.200;2022-09-12T13:13:16;3.53;;;3.10;;
8007;SDS011;4049;49.468;11.200;2022-09-12T13:15:50;4.32;;;3.13;;
8007;SDS011;4049;49.468;11.200;2022-09-12T13:18:21;3.58;;;3.00;;
8007;SDS011;4049;49.468;11.200;2022-09-12T13:20:53;3.28;;;2.75;;
8007;SDS011;4049;49.468;11.200;2022-09-12T13:23:26;4.18;;;3.20;;
8007;SDS011;4049;49.468;11.200;2022-09-12T13:25:56;3.80;;;3.05;;
8007;SDS011;4049;49.468;11.200;2022-09-12T13:28:24;4.05;;;3.47;;
8007;SDS011;4049;49.468;11.200;2022-09-12T13:30:57;3.50;;;3.20;;
8007;SDS011;4049;49.468;11.200;2022-09-12T13:33:30;4.85;;;3.47;;
8007;SDS011;4049;49.468;11.200;2022-09-12T13:39:19;3.75;;;3.28;;
8007;SDS011;4049;49.468;11.200;2022-09-12T13:44:47;3.45;;;2.75;;
8007;SDS011;4049;49.468;11.200;2022-09-12T13:47:19;3.33;;;2.75;;
8007;SDS011;4049;49.468;11.200;2022-09-12T13:49:51;5.97;;;3.25;;
8007;SDS011;4049;49.468;11.200;2022-09-12T13:52:20;4.35;;;2.90;;
8007;SDS011;4049;49.468;11.200;2022-09-12T13:54:51;3.35;;;2.90;;
8007;SDS011;4049;49.468;11.200;2022-09-12T13:57:28;3.03;;;2.72;;
8007;SDS011;4049;49.468;11.200;2022-09-12T13:59:57;3.58;;;3.05;;
8007;SDS011;4049;49.468;11.200;2022-09-12T14:02:26;4.28;;;3.00;;
8007;SDS011;4049;49.468;11.200;2022-09-12T14:04:56;43.45;;;15.25;;
8007;SDS011;4049;49.468;11.200;2022-09-12T14:07:36;15.57;;;7.40;;
8007;SDS011;4049;49.468;11.200;2022-09-12T14:10:12;9.88;;;4.65;;
8007;SDS011;4049;49.468;11.200;2022-09-12T14:12:44;6.13;;;3.70;;
8007;SDS011;4049;49.468;11.200;2022-09-12T14:15:15;5.60;;;3.50;;
8007;SDS011;4049;49.468;11.200;2022-09-12T14:17:47;4.45;;;3.35;;
8007;SDS011;4049;49.468;11.200;2022-09-12T14:20:18;6.43;;;4.22;;
8007;SDS011;4049;49.468;11.200;2022-09-12T14:22:47;4.32;;;3.28;;
8007;SDS011;4049;49.468;11.200;2022-09-12T14:25:15;4.03;;;3.60;;
8007;SDS011;4049;49.468;11.200;2022-09-12T14:27:45;4.97;;;3.28;;
8007;SDS011;4049;49.468;11.200;2022-09-12T14:30:19;14.13;;;6.70;;
8007;SDS011;4049;49.468;11.200;2022-09-12T14:33:02;5.55;;;3.40;;
8007;SDS011;4049;49.468;11.200;2022-09-12T14:35:31;4.43;;;3.22;;
8007;SDS011;4049;49.468;11.200;2022-09-12T14:38:04;4.20;;;3.40;;
8007;SDS011;4049;49.468;11.200;2022-09-12T14:40:39;4.32;;;3.40;;
8007;SDS011;4049;49.468;11.200;2022-09-12T14:43:15;3.97;;;3.33;;
8007;SDS011;4049;49.468;11.200;2022-09-12T14:45:51;4.97;;;3.40;;
8007;SDS011;4049;49.468;11.200;2022-09-12T14:48:19;3.70;;;3.40;;
8007;SDS011;4049;49.468;11.200;2022-09-12T14:50:51;3.50;;;3.20;;
8007;SDS011;4049;49.468;11.200;2022-09-12T14:53:20;3.17;;;2.80;;
8007;SDS011;4049;49.468;11.200;2022-09-12T14:55:50;3.53;;;3.22;;
8007;SDS011;4049;49.468;11.200;2022-09-12T14:58:22;5.65;;;3.25;;
8007;SDS011;4049;49.468;11.200;2022-09-12T15:00:51;4.38;;;3.40;;
8007;SDS011;4049;49.468;11.200;2022-09-12T15:03:24;3.53;;;3.10;;
8007;SDS011;4049;49.468;11.200;2022-09-12T15:05:54;5.75;;;3.38;;
8007;SDS011;4049;49.468;11.200;2022-09-12T15:08:21;3.17;;;2.88;;
8007;SDS011;4049;49.468;11.200;2022-09-12T15:10:48;3.83;;;2.92;;
8007;SDS011;4049;49.468;11.200;2022-09-12T15:13:19;5.40;;;3.47;;
8007;SDS011;4049;49.468;11.200;2022-09-12T15:15:48;4.30;;;3.13;;
8007;SDS011;4049;49.468;11.200;2022-09-12T15:18:16;4.18;;;3.00;;
8007;SDS011;4049;49.468;11.200;2022-09-12T15:20:45;4.13;;;3.00;;
8007;SDS011;4049;49.468;11.200;2022-09-12T15:23:18;4.20;;;3.33;;
8007;SDS011;4049;49.468;11.200;2022-09-12T15:25:48;3.45;;;3.15;;
8007;SDS011;4049;49.468;11.200;2022-09-12T15:28:16;3.75;;;3.20;;
8007;SDS011;4049;49.468;11.200;2022-09-12T15:30:45;4.13;;;3.13;;
8007;SDS011;4049;49.468;11.200;2022-09-12T15:33:15;3.92;;;2.90;;
8007;SDS011;4049;49.468;11.200;2022-09-12T15:35:42;4.03;;;3.00;;
8007;SDS011;4049;49.468;11.200;2022-09-12T15:38:09;3.40;;;2.70;;
8007;SDS011;4049;49.468;11.200;2022-09-12T15:40:38;4.15;;;3.45;;
8007;SDS011;4049;49.468;11.200;2022-09-12T15:43:05;3.08;;;2.80;;
8007;SDS011;4049;49.468;11.200;2022-09-12T15:45:33;3.63;;;2.80;;
8007;SDS011;4049;49.468;11.200;2022-09-12T15:48:00;3.42;;;2.88;;
8007;SDS011;4049;49.468;11.200;2022-09-12T15:50:28;4.47;;;3.17;;
8007;SDS011;4049;49.468;11.200;2022-09-12T15:52:55;4.50;;;2.90;;
8007;SDS011;4049;49.468;11.200;2022-09-12T15:55:23;4.13;;;3.08;;
8007;SDS011;4049;49.468;11.200;2022-09-12T15:57:52;3.25;;;2.90;;
8007;SDS011;4049;49.468;11.200;2022-09-12T16:00:19;3.45;;;3.05;;
8007;SDS011;4049;49.468;11.200;2022-09-12T16:02:48;3.70;;;2.90;;
8007;SDS011;4049;49.468;11.200;2022-09-12T16:05:16;4.03;;;3.20;;
8007;SDS011;4049;49.468;11.200;2022-09-12T16:07:44;5.60;;;3.20;;
8007;SDS011;4049;49.468;11.200;2022-09-12T16:10:13;3.45;;;2.97;;
8007;SDS011;4049;49.468;11.200;2022-09-12T16:12:41;4.15;;;3.33;;